Time;durP1;ratioP1;P1;durP2;ratioP2;P2;SDS_P1;SDS_P2;PMS_P1;PMS_P2;Temp;Humidity;BMP_temperature;BMP_pressure;BME280_temperature;BME280_humidity;BME280_pressure;Samples;Min_cycle;Max_cycle;Signal;HPM_P1;HPM_P2
2023/01/24 00:01:32;;;;;;;;;;;;;;;;;;8376924;28;27543;-76
2023/01/24 00:05:32;;;;;;;;;;;;;;;;;;8378145;28;27422;-76
2023/01/24 00:09:32;;;;;;;;;;;;;;;;;;8377333;28;28145;-76
2023/01/24 00:13:32;;;;;;;;;;;;;;;;;;8381496;28;28669;-76
2023/01/24 00:17:32;;;;;;;;;;;;;;;;;;8375767;28;29118;-77
2023/01/24 00:21:32;;;;;;;;;;;;;;;;;;8368719;28;27448;-77
2023/01/24 00:25:33;;;;;;;;;;;;;;;;;;8380209;28;28579;-77
2023/01/24 00:29:33;;;;;;;;;;;;;;;;;;8376412;27;27659;-77
2023/01/24 00:33:33;;;;;;;;;;;;;;;;;;8379136;27;27996;-77
2023/01/24 00:37:33;;;;;;;;;;;;;;;;;;8374523;28;28036;-77
2023/01/24 00:41:33;;;;;;;;;;;;;;;;;;8381632;28;29758;-76
2023/01/24 00:45:33;;;;;;;;;;;;;;;;;;8377830;28;29004;-77
2023/01/24 00:49:33;;;;;;;;;;;;;;;;;;8380769;28;28258;-76
2023/01/24 00:53:33;;;;;;;;;;;;;;;;;;8392408;27;27181;-77
2023/01/24 00:57:33;;;;;;;;;;;;;;;;;;8390921;28;29875;-76
2023/01/24 01:01:33;;;;;;;;;;;;;;;;;;8385157;28;28817;-78
2023/01/24 01:05:33;;;;;;;;;;;;;;;;;;8387319;27;28330;-76
2023/01/24 01:09:33;;;;;;;;;;;;;;;;;;8386156;28;28399;-76
2023/01/24 01:13:33;;;;;;;;;;;;;;;;;;8390459;27;27629;-74
2023/01/24 01:17:34;;;;;;;;;;;;;;;;;;8385836;28;28845;-77
2023/01/24 01:21:34;;;;;;;;;;;;;;;;;;8393360;28;28659;-77
2023/01/24 01:25:34;;;;;;;;;;;;;;;;;;8384436;28;28698;-78
2023/01/24 01:29:34;;;;;;;;;;;;;;;;;;8384521;28;30146;-75
2023/01/24 01:33:34;;;;;;;;;;;;;;;;;;8378856;28;27201;-77
2023/01/24 01:37:34;;;;;;;;;;;;;;;;;;8382382;28;29590;-77
2023/01/24 01:41:34;;;;;;;;;;;;;;;;;;8382662;28;27375;-77
2023/01/24 01:45:34;;;;;;;;;;;;;;;;;;8385654;28;27419;-77
2023/01/24 01:49:34;;;;;;;;;;;;;;;;;;8386204;28;27476;-77
2023/01/24 01:53:34;;;;;;;;;;;;;;;;;;8383472;28;27323;-76
2023/01/24 01:57:35;;;;;;;;;;;;;;;;;;8389307;28;28892;-78
2023/01/24 02:01:35;;;;;;;;;;;;;;;;;;8385139;28;29562;-77
2023/01/24 02:05:35;;;;;;;;;;;;;;;;;;8383997;28;28772;-77
2023/01/24 02:09:35;;;;;;;;;;;;;;;;;;8388813;28;28717;-76
2023/01/24 02:13:35;;;;;;;;;;;;;;;;;;8383221;28;27303;-77
2023/01/24 02:17:35;;;;;;;;;;;;;;;;;;8381354;28;27667;-77
2023/01/24 02:21:35;;;;;;;;;;;;;;;;;;8387470;28;28142;-76
2023/01/24 02:25:35;;;;;;;;;;;;;;;;;;8377457;28;28319;-76
2023/01/24 02:29:35;;;;;;;;;;;;;;;;;;8384553;28;28560;-76
2023/01/24 02:33:35;;;;;;;;;;;;;;;;;;8381655;28;28191;-77
2023/01/24 02:37:35;;;;;;;;;;;;;;;;;;8377521;28;28176;-77
2023/01/24 02:41:36;;;;;;;;;;;;;;;;;;8388853;28;29101;-77
2023/01/24 02:45:36;;;;;;;;;;;;;;;;;;8384414;27;27138;-77
2023/01/24 02:49:36;;;;;;;;;;;;;;;;;;8383146;28;28782;-77
2023/01/24 03:02:15;;;;;;;;;;;;;;;;;;8381260;28;27373;-76
2023/01/24 03:06:15;;;;;;;;;;;;;;;;;;8381536;28;28528;-77
2023/01/24 03:10:15;;;;;;;;;;;;;;;;;;8384507;28;28880;-77
2023/01/24 03:35:58;;;;;;;;;;;;;;;;;;8377979;28;27210;-76
2023/01/24 03:39:58;;;;;;;;;;;;;;;;;;8378409;28;27406;-76
2023/01/24 03:43:58;;;;;;;;;;;;;;;;;;8379662;28;29061;-77
2023/01/24 03:48:01;;;;;;;;;;;;;;;;;;8383728;28;27145;-77
2023/01/24 03:56:20;;;;;;;;;;;;;;;;;;8386554;28;27615;-77
2023/01/24 04:00:20;;;;;;;;;;;;;;;;;;8376544;28;27606;-76
2023/01/24 04:04:22;;;;;;;;;;;;;;;;;;8378731;28;49110;-78
2023/01/24 04:08:22;;;;;;;;;;;;;;;;;;8382971;28;27371;-77
2023/01/24 04:12:22;;;;;;;;;;;;;;;;;;8383206;28;27426;-79
2023/01/24 04:16:22;;;;;;;;;;;;;;;;;;8382361;28;27148;-77
2023/01/24 04:20:22;;;;;;;;;;;;;;;;;;8379113;28;27398;-78
2023/01/24 04:24:22;;;;;;;;;;;;;;;;;;8381633;28;28748;-76
2023/01/24 04:28:22;;;;;;;;;;;;;;;;;;8377811;28;27385;-76
2023/01/24 04:32:22;;;;;;;;;;;;;;;;;;8375866;28;28836;-77
2023/01/24 04:36:22;;;;;;;;;;;;;;;;;;8380505;28;27379;-77
2023/01/24 04:40:22;;;;;;;;;;;;;;;;;;8381389;28;27768;-78
2023/01/24 04:44:22;;;;;;;;;;;;;;;;;;8377625;27;27193;-78
2023/01/24 04:48:23;;;;;;;;;;;;;;;;;;8374283;27;27275;-77
2023/01/24 04:52:23;;;;;;;;;;;;;;;;;;8379931;28;29045;-77
2023/01/24 04:56:23;;;;;;;;;;;;;;;;;;8378629;28;27914;-77
2023/01/24 05:00:23;;;;;;;;;;;;;;;;;;8384925;28;27543;-77
2023/01/24 05:04:23;;;;;;;;;;;;;;;;;;8380450;28;27720;-76
2023/01/24 05:08:23;;;;;;;;;;;;;;;;;;8378514;28;28231;-75
2023/01/24 05:12:23;;;;;;;;;;;;;;;;;;8372462;28;28094;-76
2023/01/24 05:16:23;;;;;;;;;;;;;;;;;;8382391;28;27495;-76
2023/01/24 05:20:23;;;;;;;;;;;;;;;;;;8374827;27;27174;-78
2023/01/24 05:24:23;;;;;;;;;;;;;;;;;;8385175;28;28546;-77
2023/01/24 05:28:23;;;;;;;;;;;;;;;;;;8376050;28;28942;-78
2023/01/24 05:32:23;;;;;;;;;;;;;;;;;;8377824;28;27143;-76
2023/01/24 05:36:24;;;;;;;;;;;;;;;;;;8380362;27;27110;-77
2023/01/24 05:40:24;;;;;;;;;;;;;;;;;;8375692;28;27574;-78
2023/01/24 05:44:24;;;;;;;;;;;;;;;;;;8388122;28;27360;-77
2023/01/24 05:48:24;;;;;;;;;;;;;;;;;;8382085;28;27731;-78
2023/01/24 05:52:24;;;;;;;;;;;;;;;;;;8387739;28;27820;-78
2023/01/24 05:56:24;;;;;;;;;;;;;;;;;;8382966;28;27931;-78
2023/01/24 06:26:25;;;;;;;;;;;;;;;;;;8411864;27;27459;-78
2023/01/24 06:30:25;;;;;;;;;;;;;;;;;;8400218;27;28515;-78
2023/01/24 06:34:25;;;;;;;;;;;;;;;;;;8403057;27;27201;-79
2023/01/24 06:38:25;;;;;;;;;;;;;;;;;;8404685;27;27164;-77
2023/01/24 06:42:25;;;;;;;;;;;;;;;;;;8402889;27;27304;-78
2023/01/24 06:46:25;;;;;;;;;;;;;;;;;;8397228;27;27359;-76
2023/01/24 06:50:29;;;;;;;;;;;;;;;;;;8405108;27;27372;-77
2023/01/24 06:54:29;;;;;;;;;;;;;;;;;;8403616;27;28422;-77
2023/01/24 06:58:29;;;;;;;;;;;;;;;;;;8401135;27;27527;-78
2023/01/24 07:02:29;;;;;;;;;;;;;;;;;;8404855;27;28519;-78
2023/01/24 07:06:29;;;;;;;;;;;;;;;;;;8402078;27;28408;-75
2023/01/24 07:10:29;;;;;;;;;;;;;;;;;;8401288;27;28738;-76
2023/01/24 07:14:29;;;;;;;;;;;;;;;;;;8402583;27;27176;-77
2023/01/24 07:18:29;;;;;;;;;;;;;;;;;;8396317;27;27324;-79
2023/01/24 07:22:29;;;;;;;;;;;;;;;;;;8403093;27;28383;-79
2023/01/24 07:26:30;;;;;;;;;;;;;;;;;;8404965;27;28484;-78
2023/01/24 07:30:30;;;;;;;;;;;;;;;;;;8400027;27;27702;-78
2023/01/24 07:34:30;;;;;;;;;;;;;;;;;;8406679;27;29090;-77
2023/01/24 07:38:30;;;;;;;;;;;;;;;;;;8405038;27;28413;-78
2023/01/24 07:42:30;;;;;;;;;;;;;;;;;;8405577;27;28119;-77
2023/01/24 07:46:30;;;;;;;;;;;;;;;;;;8401341;27;28457;-78
2023/01/24 07:50:31;;;;;;;;;;;;;;;;;;8400919;27;28713;-77
2023/01/24 07:54:31;;;;;;;;;;;;;;;;;;8401689;27;28632;-78
2023/01/24 07:58:31;;;;;;;;;;;;;;;;;;8419050;27;27237;-78
2023/01/24 08:02:31;;;;;;;;;;;;;;;;;;8418331;27;27760;-79
2023/01/24 08:06:31;;;;;;;;;;;;;;;;;;8413695;27;27782;-78
2023/01/24 08:10:31;;;;;;;;;;;;;;;;;;8398294;27;28411;-77
2023/01/24 08:14:31;;;;;;;;;;;;;;;;;;8402920;27;29882;-76
2023/01/24 08:18:32;;;;;;;;;;;;;;;;;;8397214;27;28459;-77
2023/01/24 08:22:32;;;;;;;;;;;;;;;;;;8398478;27;28918;-77
2023/01/24 08:26:32;;;;;;;;;;;;;;;;;;8414519;27;28257;-77
2023/01/24 08:30:32;;;;;;;;;;;;;;;;;;8410678;27;27818;-76
2023/01/24 08:34:32;;;;;;;;;;;;;;;;;;8396682;27;28786;-77
2023/01/24 08:38:32;;;;;;;;;;;;;;;;;;8404064;27;28953;-78
2023/01/24 08:42:32;;;;;;;;;;;;;;;;;;8409111;27;28341;-77
2023/01/24 08:46:32;;;;;;;;;;;;;;;;;;8409697;27;27577;-79
2023/01/24 08:50:32;;;;;;;;;;;;;;;;;;8412984;27;27387;-77
2023/01/24 08:54:32;;;;;;;;;;;;;;;;;;8397423;27;28513;-77
2023/01/24 08:58:33;;;;;;;;;;;;;;;;;;8413458;27;27242;-77
2023/01/24 09:02:36;;;;;;;;;;;;;;;;;;8415370;27;27140;-77
2023/01/24 09:06:36;;;;;;;;;;;;;;;;;;8396952;27;28378;-77
2023/01/24 09:10:36;;;;;;;;;;;;;;;;;;8412435;27;27501;-77
2023/01/24 09:14:37;;;;;;;;;;;;;;;;;;8410640;27;27231;-76
2023/01/24 09:18:37;;;;;;;;;;;;;;;;;;8401769;27;28537;-77
2023/01/24 09:22:37;;;;;;;;;;;;;;;;;;8418814;27;27960;-78
2023/01/24 09:26:37;;;;;;;;;;;;;;;;;;8418279;27;27458;-78
2023/01/24 09:30:37;;;;;;;;;;;;;;;;;;8403585;27;28741;-79
2023/01/24 09:34:40;;;;;;;;;;;;;;;;;;8423858;27;27073;-77
2023/01/24 09:38:40;;;;;;;;;;;;;;;;;;8398740;27;28416;-78
2023/01/24 09:42:41;;;;;;;;;;;;;;;;;;8416732;27;27536;-77
2023/01/24 09:46:41;;;;;;;;;;;;;;;;;;8422668;27;27249;-79
2023/01/24 09:50:41;;;;;;;;;;;;;;;;;;8403929;27;28713;-77
2023/01/24 09:54:41;;;;;;;;;;;;;;;;;;8415669;27;28713;-78
2023/01/24 09:58:43;;;;;;;;;;;;;;;;;;8405365;27;28539;-77
2023/01/24 10:02:43;;;;;;;;;;;;;;;;;;8401496;27;29446;-77
2023/01/24 10:06:43;;;;;;;;;;;;;;;;;;8399884;27;29522;-77
2023/01/24 10:10:43;;;;;;;;;;;;;;;;;;8407567;27;29653;-77
2023/01/24 10:14:43;;;;;;;;;;;;;;;;;;8417699;27;27713;-77
2023/01/24 10:18:43;;;;;;;;;;;;;;;;;;8416867;27;27655;-77
2023/01/24 10:22:44;;;;;;;;;;;;;;;;;;8408471;27;28503;-77
2023/01/24 10:26:44;;;;;;;;;;;;;;;;;;8415607;27;27330;-80
2023/01/24 10:30:44;;;;;;;;;;;;;;;;;;8419533;27;27588;-78
2023/01/24 10:34:44;;;;;;;;;;;;;;;;;;8407476;27;28723;-78
2023/01/24 10:38:44;;;;;;;;;;;;;;;;;;8395350;27;28550;-76
2023/01/24 10:42:44;;;;;;;;;;;;;;;;;;8420954;27;28420;-78
2023/01/24 10:46:44;;;;;;;;;;;;;;;;;;8397323;27;28484;-77
2023/01/24 10:50:44;;;;;;;;;;;;;;;;;;8416164;27;27824;-78
2023/01/24 10:54:44;;;;;;;;;;;;;;;;;;8414705;27;27173;-77
2023/01/24 10:58:44;;;;;;;;;;;;;;;;;;8420969;27;27587;-77
2023/01/24 11:02:44;;;;;;;;;;;;;;;;;;8413747;27;27190;-77
2023/01/24 11:06:44;;;;;;;;;;;;;;;;;;8418217;27;27396;-78
2023/01/24 11:10:45;;;;;;;;;;;;;;;;;;8412724;27;27748;-78
2023/01/24 11:14:45;;;;;;;;;;;;;;;;;;8416183;27;27640;-78
2023/01/24 11:18:45;;;;;;;;;;;;;;;;;;8421454;27;27215;-78
2023/01/24 11:22:45;;;;;;;;;;;;;;;;;;8424506;27;27876;-77
2023/01/24 11:26:48;;;;;;;;;;;;;;;;;;8420411;27;27748;-77
2023/01/24 11:30:48;;;;;;;;;;;;;;;;;;8415428;27;27170;-77
2023/01/24 11:34:48;;;;;;;;;;;;;;;;;;8418110;27;27942;-77
2023/01/24 11:38:48;;;;;;;;;;;;;;;;;;8404079;27;29277;-79
2023/01/24 11:42:49;;;;;;;;;;;;;;;;;;8414418;27;27292;-77
2023/01/24 11:46:49;;;;;;;;;;;;;;;;;;8395793;27;28389;-77
2023/01/24 11:50:49;;;;;;;;;;;;;;;;;;8416019;27;27558;-75
2023/01/24 11:54:49;;;;;;;;;;;;;;;;;;8400946;27;28836;-76
2023/01/24 11:58:49;;;;;;;;;;;;;;;;;;8413195;27;28365;-77
2023/01/24 12:02:49;;;;;;;;;;;;;;;;;;8408061;27;27727;-77
2023/01/24 12:06:49;;;;;;;;;;;;;;;;;;8410586;27;28288;-77
2023/01/24 12:10:50;;;;;;;;;;;;;;;;;;8395563;27;28495;-78
2023/01/24 12:14:50;;;;;;;;;;;;;;;;;;8397785;27;28600;-78
2023/01/24 12:18:50;;;;;;;;;;;;;;;;;;8397106;27;28244;-78
2023/01/24 12:22:53;;;;;;;;;;;;;;;;;;8399448;27;28459;-77
2023/01/24 12:26:53;;;;;;;;;;;;;;;;;;8411616;27;27123;-77
2023/01/24 12:30:53;;;;;;;;;;;;;;;;;;8399469;27;29105;-77
2023/01/24 12:34:53;;;;;;;;;;;;;;;;;;8417212;27;27432;-77
2023/01/24 12:38:55;;;;;;;;;;;;;;;;;;8402258;27;28428;-76
2023/01/24 12:42:55;;;;;;;;;;;;;;;;;;8408556;27;27107;-77
2023/01/24 12:46:55;;;;;;;;;;;;;;;;;;8413531;27;27239;-77
2023/01/24 12:50:55;;;;;;;;;;;;;;;;;;8412126;27;27280;-78
2023/01/24 12:54:55;;;;;;;;;;;;;;;;;;8419789;27;27146;-78
2023/01/24 12:58:56;;;;;;;;;;;;;;;;;;8423473;27;27197;-77
2023/01/24 13:02:56;;;;;;;;;;;;;;;;;;8408951;27;29572;-77
2023/01/24 13:06:56;;;;;;;;;;;;;;;;;;8411204;27;28490;-77
2023/01/24 13:10:56;;;;;;;;;;;;;;;;;;8428896;27;27988;-77
2023/01/24 13:14:57;;;;;;;;;;;;;;;;;;8405869;27;28500;-78
2023/01/24 13:18:57;;;;;;;;;;;;;;;;;;8418541;27;27246;-77
2023/01/24 13:22:57;;;;;;;;;;;;;;;;;;8418944;27;28304;-77
2023/01/24 13:26:57;;;;;;;;;;;;;;;;;;8423490;27;27454;-77
2023/01/24 13:30:57;;;;;;;;;;;;;;;;;;8408489;27;28451;-77
2023/01/24 13:34:57;;;;;;;;;;;;;;;;;;8421024;27;27405;-77
2023/01/24 13:38:57;;;;;;;;;;;;;;;;;;8409933;27;28579;-77
2023/01/24 13:42:57;;;;;;;;;;;;;;;;;;8415016;27;27520;-78
2023/01/24 13:46:58;;;;;;;;;;;;;;;;;;8392227;27;28540;-77
2023/01/24 13:50:58;;;;;;;;;;;;;;;;;;8412021;27;27558;-78
2023/01/24 13:54:58;;;;;;;;;;;;;;;;;;8407195;27;28723;-78
2023/01/24 13:58:58;;;;;;;;;;;;;;;;;;8393877;27;28297;-77
2023/01/24 14:02:58;;;;;;;;;;;;;;;;;;8400107;27;28463;-79
2023/01/24 14:06:58;;;;;;;;;;;;;;;;;;8412507;27;28257;-77
2023/01/24 14:10:58;;;;;;;;;;;;;;;;;;8404506;27;27427;-76
2023/01/24 14:14:58;;;;;;;;;;;;;;;;;;8402336;27;28558;-77
2023/01/24 14:18:58;;;;;;;;;;;;;;;;;;8395005;27;28420;-76
2023/01/24 14:22:58;;;;;;;;;;;;;;;;;;8400521;27;28029;-77
2023/01/24 14:26:59;;;;;;;;;;;;;;;;;;8411295;27;27430;-77
2023/01/24 14:30:59;;;;;;;;;;;;;;;;;;8393697;27;28898;-78
2023/01/24 14:34:59;;;;;;;;;;;;;;;;;;8402041;27;27616;-78
2023/01/24 14:38:59;;;;;;;;;;;;;;;;;;8403925;27;28509;-79
2023/01/24 14:42:59;;;;;;;;;;;;;;;;;;8412648;27;27815;-79
2023/01/24 14:46:59;;;;;;;;;;;;;;;;;;8409312;27;28467;-77
2023/01/24 14:50:59;;;;;;;;;;;;;;;;;;8408103;27;30412;-79
2023/01/24 14:55:00;;;;;;;;;;;;;;;;;;8416079;27;27338;-77
2023/01/24 14:59:00;;;;;;;;;;;;;;;;;;8405325;27;28362;-79
2023/01/24 15:03:01;;;;;;;;;;;;;;;;;;8410672;27;27370;-79
2023/01/24 15:07:01;;;;;;;;;;;;;;;;;;8412854;27;28075;-76
2023/01/24 15:11:01;;;;;;;;;;;;;;;;;;8412627;27;27533;-77
2023/01/24 15:15:02;;;;;;;;;;;;;;;;;;8407063;27;27981;-79
2023/01/24 15:19:02;;;;;;;;;;;;;;;;;;8417342;27;27391;-78
2023/01/24 15:23:06;;;;;;;;;;;;;;;;;;8416919;27;27793;-76
2023/01/24 15:27:06;;;;;;;;;;;;;;;;;;8412403;27;27384;-77
2023/01/24 15:31:06;;;;;;;;;;;;;;;;;;8405260;27;28730;-77
2023/01/24 15:35:06;;;;;;;;;;;;;;;;;;8410793;27;28255;-77
2023/01/24 15:39:06;;;;;;;;;;;;;;;;;;8406233;27;27705;-78
2023/01/24 15:51:44;;;;;;;;;;;;;;;;;;8400019;27;27497;-78
2023/01/24 15:55:44;;;;;;;;;;;;;;;;;;8404494;27;27460;-77
2023/01/24 15:59:44;;;;;;;;;;;;;;;;;;8390143;27;28888;-79
2023/01/24 16:03:44;;;;;;;;;;;;;;;;;;8403370;27;27832;-78
2023/01/24 16:07:44;;;;;;;;;;;;;;;;;;8406990;27;27516;-78
2023/01/24 16:11:45;;;;;;;;;;;;;;;;;;8402668;27;28127;-77
2023/01/24 16:15:45;;;;;;;;;;;;;;;;;;8401822;27;27409;-78
2023/01/24 16:19:45;;;;;;;;;;;;;;;;;;8392876;27;28270;-78
2023/01/24 16:23:45;;;;;;;;;;;;;;;;;;8386272;27;28387;-77
2023/01/24 16:27:45;;;;;;;;;;;;;;;;;;8386045;27;28740;-78
2023/01/24 16:31:45;;;;;;;;;;;;;;;;;;8399758;27;30090;-79
2023/01/24 16:35:45;;;;;;;;;;;;;;;;;;8405153;27;28880;-78
2023/01/24 16:39:45;;;;;;;;;;;;;;;;;;8398377;27;28843;-78
2023/01/24 16:43:45;;;;;;;;;;;;;;;;;;8405880;27;28917;-77
2023/01/24 16:47:45;;;;;;;;;;;;;;;;;;8395990;27;28595;-78
2023/01/24 16:51:45;;;;;;;;;;;;;;;;;;8417790;27;27457;-77
2023/01/24 16:55:46;;;;;;;;;;;;;;;;;;8412559;27;27556;-78
2023/01/24 16:59:46;;;;;;;;;;;;;;;;;;8423460;27;27866;-77
2023/01/24 17:03:46;;;;;;;;;;;;;;;;;;8397572;27;28485;-76
2023/01/24 17:07:46;;;;;;;;;;;;;;;;;;8415172;27;27358;-77
2023/01/24 17:11:46;;;;;;;;;;;;;;;;;;8409104;27;28159;-77
2023/01/24 17:15:46;;;;;;;;;;;;;;;;;;8412809;27;27299;-78
2023/01/24 17:19:46;;;;;;;;;;;;;;;;;;8409710;27;28502;-76
2023/01/24 17:23:46;;;;;;;;;;;;;;;;;;8395376;27;29394;-79
2023/01/24 17:27:47;;;;;;;;;;;;;;;;;;8390302;27;28514;-77
2023/01/24 17:31:47;;;;;;;;;;;;;;;;;;8398966;27;28851;-79
2023/01/24 17:35:47;;;;;;;;;;;;;;;;;;8405278;27;28438;-78
2023/01/24 17:39:48;;;;;;;;;;;;;;;;;;8398401;27;29419;-78
2023/01/24 17:43:49;;;;;;;;;;;;;;;;;;8421840;27;27405;-78
2023/01/24 17:47:50;;;;;;;;;;;;;;;;;;8413158;27;27456;-78
2023/01/24 17:51:50;;;;;;;;;;;;;;;;;;8415973;27;28396;-77
2023/01/24 17:55:50;;;;;;;;;;;;;;;;;;8420205;27;27677;-76
2023/01/24 17:59:50;;;;;;;;;;;;;;;;;;8422526;27;27601;-76
2023/01/24 18:03:50;;;;;;;;;;;;;;;;;;8400492;27;28134;-78
2023/01/24 18:07:50;;;;;;;;;;;;;;;;;;8418663;27;27439;-79
2023/01/24 18:11:50;;;;;;;;;;;;;;;;;;8399141;27;28701;-78
2023/01/24 18:15:50;;;;;;;;;;;;;;;;;;8427355;27;27481;-79
2023/01/24 18:19:50;;;;;;;;;;;;;;;;;;8418037;27;27818;-78
2023/01/24 18:23:50;;;;;;;;;;;;;;;;;;8403846;27;29186;-77
2023/01/24 18:27:51;;;;;;;;;;;;;;;;;;8400855;27;29637;-77
2023/01/24 18:31:51;;;;;;;;;;;;;;;;;;8425163;27;28187;-77
2023/01/24 18:35:51;;;;;;;;;;;;;;;;;;8418118;27;27889;-78
2023/01/24 18:39:51;;;;;;;;;;;;;;;;;;8397217;27;28554;-78
2023/01/24 18:43:51;;;;;;;;;;;;;;;;;;8397471;27;29070;-79
2023/01/24 18:47:51;;;;;;;;;;;;;;;;;;8392719;27;28415;-79
2023/01/24 18:51:51;;;;;;;;;;;;;;;;;;8406496;27;28525;-78
2023/01/24 18:55:51;;;;;;;;;;;;;;;;;;8416721;27;28277;-78
2023/01/24 18:59:51;;;;;;;;;;;;;;;;;;8401373;27;28912;-79
2023/01/24 19:03:51;;;;;;;;;;;;;;;;;;8404480;27;28782;-78
2023/01/24 19:07:51;;;;;;;;;;;;;;;;;;8420256;27;27265;-77
2023/01/24 19:11:51;;;;;;;;;;;;;;;;;;8404547;27;29788;-77
2023/01/24 19:15:52;;;;;;;;;;;;;;;;;;8398073;27;28635;-78
2023/01/24 19:19:52;;;;;;;;;;;;;;;;;;8410086;27;27170;-78
2023/01/24 19:23:52;;;;;;;;;;;;;;;;;;8400418;27;28975;-78
2023/01/24 19:27:52;;;;;;;;;;;;;;;;;;8412680;27;27610;-78
2023/01/24 19:31:52;;;;;;;;;;;;;;;;;;8405732;27;28167;-78
2023/01/24 19:35:52;;;;;;;;;;;;;;;;;;8398939;27;28421;-78
2023/01/24 19:39:52;;;;;;;;;;;;;;;;;;8402690;27;28240;-79
2023/01/24 19:43:52;;;;;;;;;;;;;;;;;;8425914;27;27572;-78
2023/01/24 19:47:53;;;;;;;;;;;;;;;;;;8408515;27;28432;-78
2023/01/24 19:51:53;;;;;;;;;;;;;;;;;;8420075;27;27125;-78
2023/01/24 19:55:53;;;;;;;;;;;;;;;;;;8425863;27;27327;-79
2023/01/24 19:59:53;;;;;;;;;;;;;;;;;;8422246;27;27740;-77
2023/01/24 20:03:56;;;;;;;;;;;;;;;;;;8435440;27;27801;-80
2023/01/24 22:35:40;;;;;;;;;;;;;;;;;;8418483;27;27507;-77
2023/01/24 23:27:52;;;;;;;;;;;;;;;;;;8377251;28;27100;-78
2023/01/24 23:31:52;;;;;;;;;;;;;;;;;;8373335;28;27551;-77
2023/01/24 23:35:52;;;;;;;;;;;;;;;;;;8372609;27;27558;-77
2023/01/24 23:39:52;;;;;;;;;;;;;;;;;;8410926;27;28205;-77
2023/01/24 23:43:52;;;;;;;;;;;;;;;;;;8397410;27;29109;-78
2023/01/24 23:47:52;;;;;;;;;;;;;;;;;;8395119;27;28332;-77
2023/01/24 23:51:52;;;;;;;;;;;;;;;;;;8400812;27;28318;-78
2023/01/24 23:55:52;;;;;;;;;;;;;;;;;;8400469;27;28736;-78
2023/01/24 23:59:52;;;;;;;;;;;;;;;;;;8414227;27;27251;-78
